sensor_id;sensor_type;location;lat;lon;timestamp;temperature;humidity
22838;DHT22;11585;51.450;-0.240;2023-05-07T00:01:32;15.90;99.90
22838;DHT22;11585;51.450;-0.240;2023-05-07T00:03:58;15.90;99.90
22838;DHT22;11585;51.450;-0.240;2023-05-07T00:06:24;15.90;99.90
22838;DHT22;11585;51.450;-0.240;2023-05-07T00:11:39;15.90;99.90
22838;DHT22;11585;51.450;-0.240;2023-05-07T00:14:06;15.90;99.90
22838;DHT22;11585;51.450;-0.240;2023-05-07T00:16:31;15.80;99.90
22838;DHT22;11585;51.450;-0.240;2023-05-07T00:22:19;15.80;99.90
22838;DHT22;11585;51.450;-0.240;2023-05-07T00:24:45;15.80;99.90
22838;DHT22;11585;51.450;-0.240;2023-05-07T00:27:10;15.80;99.90
22838;DHT22;11585;51.450;-0.240;2023-05-07T00:29:39;15.80;99.90
22838;DHT22;11585;51.450;-0.240;2023-05-07T00:32:05;15.80;99.90
22838;DHT22;11585;51.450;-0.240;2023-05-07T00:34:30;15.80;99.90
22838;DHT22;11585;51.450;-0.240;2023-05-07T00:36:56;15.80;99.90
22838;DHT22;11585;51.450;-0.240;2023-05-07T00:39:24;15.80;99.90
22838;DHT22;11585;51.450;-0.240;2023-05-07T00:41:49;15.80;99.90
22838;DHT22;11585;51.450;-0.240;2023-05-07T00:44:16;15.80;99.90
22838;DHT22;11585;51.450;-0.240;2023-05-07T00:46:43;15.80;99.90
22838;DHT22;11585;51.450;-0.240;2023-05-07T00:49:14;15.80;99.90
22838;DHT22;11585;51.450;-0.240;2023-05-07T00:51:40;15.80;99.90
22838;DHT22;11585;51.450;-0.240;2023-05-07T00:54:05;15.70;99.90
22838;DHT22;11585;51.450;-0.240;2023-05-07T00:56:31;15.70;99.90
22838;DHT22;11585;51.450;-0.240;2023-05-07T00:58:58;15.70;99.90
22838;DHT22;11585;51.450;-0.240;2023-05-07T01:01:24;15.70;99.90
22838;DHT22;11585;51.450;-0.240;2023-05-07T01:03:50;15.70;99.90
22838;DHT22;11585;51.450;-0.240;2023-05-07T01:06:16;15.70;99.90
22838;DHT22;11585;51.450;-0.240;2023-05-07T01:15:26;15.70;99.90
22838;DHT22;11585;51.450;-0.240;2023-05-07T01:17:53;15.70;99.90
22838;DHT22;11585;51.450;-0.240;2023-05-07T01:20:19;15.70;99.90
22838;DHT22;11585;51.450;-0.240;2023-05-07T01:22:45;15.70;99.90
22838;DHT22;11585;51.450;-0.240;2023-05-07T01:25:11;15.60;99.90
22838;DHT22;11585;51.450;-0.240;2023-05-07T01:27:37;15.60;99.90
22838;DHT22;11585;51.450;-0.240;2023-05-07T01:33:15;15.60;99.90
22838;DHT22;11585;51.450;-0.240;2023-05-07T01:35:45;15.60;99.90
22838;DHT22;11585;51.450;-0.240;2023-05-07T01:38:13;15.60;99.90
22838;DHT22;11585;51.450;-0.240;2023-05-07T01:40:38;15.60;99.90
22838;DHT22;11585;51.450;-0.240;2023-05-07T01:43:05;15.60;99.90
22838;DHT22;11585;51.450;-0.240;2023-05-07T01:45:31;15.60;99.90
22838;DHT22;11585;51.450;-0.240;2023-05-07T01:50:49;15.50;99.90
22838;DHT22;11585;51.450;-0.240;2023-05-07T01:53:15;15.50;99.90
22838;DHT22;11585;51.450;-0.240;2023-05-07T01:55:41;15.50;99.90
22838;DHT22;11585;51.450;-0.240;2023-05-07T02:00:54;15.50;99.90
22838;DHT22;11585;51.450;-0.240;2023-05-07T02:03:20;15.50;99.90
22838;DHT22;11585;51.450;-0.240;2023-05-07T02:05:46;15.50;99.90
22838;DHT22;11585;51.450;-0.240;2023-05-07T02:11:15;15.50;99.90
22838;DHT22;11585;51.450;-0.240;2023-05-07T02:13:41;15.50;99.90
22838;DHT22;11585;51.450;-0.240;2023-05-07T02:16:06;15.40;99.90
22838;DHT22;11585;51.450;-0.240;2023-05-07T02:18:52;15.40;99.90
22838;DHT22;11585;51.450;-0.240;2023-05-07T02:21:18;15.50;99.90
22838;DHT22;11585;51.450;-0.240;2023-05-07T02:23:43;15.40;99.90
22838;DHT22;11585;51.450;-0.240;2023-05-07T02:26:10;15.40;99.90
22838;DHT22;11585;51.450;-0.240;2023-05-07T02:31:39;15.40;99.90
22838;DHT22;11585;51.450;-0.240;2023-05-07T02:34:05;15.40;99.90
22838;DHT22;11585;51.450;-0.240;2023-05-07T02:36:30;15.40;99.90
22838;DHT22;11585;51.450;-0.240;2023-05-07T02:42:18;15.40;99.90
22838;DHT22;11585;51.450;-0.240;2023-05-07T02:44:44;15.30;99.90
22838;DHT22;11585;51.450;-0.240;2023-05-07T02:47:09;15.40;99.90
22838;DHT22;11585;51.450;-0.240;2023-05-07T02:49:54;15.30;99.90
22838;DHT22;11585;51.450;-0.240;2023-05-07T02:52:20;15.40;99.90
22838;DHT22;11585;51.450;-0.240;2023-05-07T02:54:46;15.30;99.90
22838;DHT22;11585;51.450;-0.240;2023-05-07T02:57:12;15.40;99.90
22838;DHT22;11585;51.450;-0.240;2023-05-07T02:59:37;15.30;99.90
22838;DHT22;11585;51.450;-0.240;2023-05-07T03:02:03;15.30;99.90
22838;DHT22;11585;51.450;-0.240;2023-05-07T03:04:28;15.30;99.90
22838;DHT22;11585;51.450;-0.240;2023-05-07T03:06:54;15.30;99.90
22838;DHT22;11585;51.450;-0.240;2023-05-07T03:09:20;15.30;99.90
22838;DHT22;11585;51.450;-0.240;2023-05-07T03:11:45;15.30;99.90
22838;DHT22;11585;51.450;-0.240;2023-05-07T03:14:11;15.30;99.90
22838;DHT22;11585;51.450;-0.240;2023-05-07T03:16:37;15.30;99.90
22838;DHT22;11585;51.450;-0.240;2023-05-07T03:21:51;15.30;99.90
22838;DHT22;11585;51.450;-0.240;2023-05-07T03:24:16;15.30;99.90
22838;DHT22;11585;51.450;-0.240;2023-05-07T03:26:42;15.30;99.90
22838;DHT22;11585;51.450;-0.240;2023-05-07T03:29:09;15.30;99.90
22838;DHT22;11585;51.450;-0.240;2023-05-07T03:31:34;15.30;99.90
22838;DHT22;11585;51.450;-0.240;2023-05-07T03:34:00;15.30;99.90
22838;DHT22;11585;51.450;-0.240;2023-05-07T03:36:26;15.20;99.90
22838;DHT22;11585;51.450;-0.240;2023-05-07T03:38:59;15.30;99.90
22838;DHT22;11585;51.450;-0.240;2023-05-07T03:41:25;15.30;99.90
22838;DHT22;11585;51.450;-0.240;2023-05-07T03:43:51;15.30;99.90
22838;DHT22;11585;51.450;-0.240;2023-05-07T03:46:16;15.30;99.90
22838;DHT22;11585;51.450;-0.240;2023-05-07T03:48:42;15.30;99.90
22838;DHT22;11585;51.450;-0.240;2023-05-07T03:51:08;15.30;99.90
22838;DHT22;11585;51.450;-0.240;2023-05-07T03:53:33;15.30;99.90
22838;DHT22;11585;51.450;-0.240;2023-05-07T03:55:59;15.20;99.90
22838;DHT22;11585;51.450;-0.240;2023-05-07T03:58:28;15.30;99.90
22838;DHT22;11585;51.450;-0.240;2023-05-07T04:00:53;15.20;99.90
22838;DHT22;11585;51.450;-0.240;2023-05-07T04:03:19;15.20;99.90
22838;DHT22;11585;51.450;-0.240;2023-05-07T04:05:44;15.20;99.90
22838;DHT22;11585;51.450;-0.240;2023-05-07T04:11:32;15.30;99.90
22838;DHT22;11585;51.450;-0.240;2023-05-07T04:13:58;15.20;99.90
22838;DHT22;11585;51.450;-0.240;2023-05-07T04:16:23;15.20;99.90
22838;DHT22;11585;51.450;-0.240;2023-05-07T04:19:08;15.20;99.90
22838;DHT22;11585;51.450;-0.240;2023-05-07T04:21:34;15.20;99.90
22838;DHT22;11585;51.450;-0.240;2023-05-07T04:23:59;15.20;99.90
22838;DHT22;11585;51.450;-0.240;2023-05-07T04:26:25;15.20;99.90
22838;DHT22;11585;51.450;-0.240;2023-05-07T04:29:12;15.20;99.90
22838;DHT22;11585;51.450;-0.240;2023-05-07T04:31:37;15.20;99.90
22838;DHT22;11585;51.450;-0.240;2023-05-07T04:34:03;15.20;99.90
22838;DHT22;11585;51.450;-0.240;2023-05-07T04:36:29;15.20;99.90
22838;DHT22;11585;51.450;-0.240;2023-05-07T04:45:26;15.20;99.90
22838;DHT22;11585;51.450;-0.240;2023-05-07T04:48:12;15.20;99.90
22838;DHT22;11585;51.450;-0.240;2023-05-07T04:50:39;15.20;99.90
22838;DHT22;11585;51.450;-0.240;2023-05-07T04:53:06;15.20;99.90
22838;DHT22;11585;51.450;-0.240;2023-05-07T04:55:31;15.20;99.90
22838;DHT22;11585;51.450;-0.240;2023-05-07T05:01:02;15.20;99.90
22838;DHT22;11585;51.450;-0.240;2023-05-07T05:03:28;15.20;99.90
22838;DHT22;11585;51.450;-0.240;2023-05-07T05:05:56;15.20;99.90
22838;DHT22;11585;51.450;-0.240;2023-05-07T05:11:27;15.20;99.90
22838;DHT22;11585;51.450;-0.240;2023-05-07T05:13:53;15.20;99.90
22838;DHT22;11585;51.450;-0.240;2023-05-07T05:16:18;15.20;99.90
22838;DHT22;11585;51.450;-0.240;2023-05-07T05:19:04;15.20;99.90
22838;DHT22;11585;51.450;-0.240;2023-05-07T05:21:30;15.20;99.90
22838;DHT22;11585;51.450;-0.240;2023-05-07T05:23:56;15.20;99.90
22838;DHT22;11585;51.450;-0.240;2023-05-07T05:26:22;15.20;99.90
22838;DHT22;11585;51.450;-0.240;2023-05-07T05:29:07;15.30;99.90
22838;DHT22;11585;51.450;-0.240;2023-05-07T05:31:33;15.30;99.90
22838;DHT22;11585;51.450;-0.240;2023-05-07T05:33:59;15.20;99.90
22838;DHT22;11585;51.450;-0.240;2023-05-07T05:36:24;15.20;99.90
22838;DHT22;11585;51.450;-0.240;2023-05-07T05:38:53;15.20;99.90
22838;DHT22;11585;51.450;-0.240;2023-05-07T05:41:18;15.20;99.90
22838;DHT22;11585;51.450;-0.240;2023-05-07T05:43:44;15.20;99.90
22838;DHT22;11585;51.450;-0.240;2023-05-07T05:46:10;15.20;99.90
22838;DHT22;11585;51.450;-0.240;2023-05-07T05:48:38;15.20;99.90
22838;DHT22;11585;51.450;-0.240;2023-05-07T05:51:03;15.20;99.90
22838;DHT22;11585;51.450;-0.240;2023-05-07T05:53:29;15.20;99.90
22838;DHT22;11585;51.450;-0.240;2023-05-07T05:55:55;15.30;99.90
22838;DHT22;11585;51.450;-0.240;2023-05-07T05:58:21;15.20;99.90
22838;DHT22;11585;51.450;-0.240;2023-05-07T06:00:46;15.20;99.90
22838;DHT22;11585;51.450;-0.240;2023-05-07T06:03:13;15.30;99.90
22838;DHT22;11585;51.450;-0.240;2023-05-07T06:05:39;15.20;99.90
22838;DHT22;11585;51.450;-0.240;2023-05-07T06:08:24;15.30;99.90
22838;DHT22;11585;51.450;-0.240;2023-05-07T06:10:49;15.30;99.90
22838;DHT22;11585;51.450;-0.240;2023-05-07T06:13:15;15.20;99.90
22838;DHT22;11585;51.450;-0.240;2023-05-07T06:15:41;15.30;99.90
22838;DHT22;11585;51.450;-0.240;2023-05-07T06:18:06;15.30;99.90
22838;DHT22;11585;51.450;-0.240;2023-05-07T06:20:32;15.30;99.90
22838;DHT22;11585;51.450;-0.240;2023-05-07T06:22:58;15.30;99.90
22838;DHT22;11585;51.450;-0.240;2023-05-07T06:25:23;15.30;99.90
22838;DHT22;11585;51.450;-0.240;2023-05-07T06:27:49;15.30;99.90
22838;DHT22;11585;51.450;-0.240;2023-05-07T06:30:14;15.30;99.90
22838;DHT22;11585;51.450;-0.240;2023-05-07T06:32:40;15.30;99.90
22838;DHT22;11585;51.450;-0.240;2023-05-07T06:35:06;15.30;99.90
22838;DHT22;11585;51.450;-0.240;2023-05-07T06:37:32;15.30;99.90
22838;DHT22;11585;51.450;-0.240;2023-05-07T06:39:58;15.30;99.90
22838;DHT22;11585;51.450;-0.240;2023-05-07T06:42:24;15.30;99.90
22838;DHT22;11585;51.450;-0.240;2023-05-07T06:44:50;15.30;99.90
22838;DHT22;11585;51.450;-0.240;2023-05-07T06:47:15;15.30;99.90
22838;DHT22;11585;51.450;-0.240;2023-05-07T06:49:43;15.30;99.90
22838;DHT22;11585;51.450;-0.240;2023-05-07T06:52:09;15.30;99.90
22838;DHT22;11585;51.450;-0.240;2023-05-07T06:54:35;15.30;99.90
22838;DHT22;11585;51.450;-0.240;2023-05-07T06:57:01;15.30;99.90
22838;DHT22;11585;51.450;-0.240;2023-05-07T06:59:31;15.30;99.90
22838;DHT22;11585;51.450;-0.240;2023-05-07T07:01:56;15.40;99.90
22838;DHT22;11585;51.450;-0.240;2023-05-07T07:04:22;15.30;99.90
22838;DHT22;11585;51.450;-0.240;2023-05-07T07:06:49;15.40;99.90
22838;DHT22;11585;51.450;-0.240;2023-05-07T07:09:15;15.40;99.90
22838;DHT22;11585;51.450;-0.240;2023-05-07T07:11:40;15.40;99.90
22838;DHT22;11585;51.450;-0.240;2023-05-07T07:14:06;15.40;99.90
22838;DHT22;11585;51.450;-0.240;2023-05-07T07:16:31;15.40;99.90
22838;DHT22;11585;51.450;-0.240;2023-05-07T07:18:59;15.40;99.90
22838;DHT22;11585;51.450;-0.240;2023-05-07T07:21:25;15.40;99.90
22838;DHT22;11585;51.450;-0.240;2023-05-07T07:23:50;15.40;99.90
22838;DHT22;11585;51.450;-0.240;2023-05-07T07:26:17;15.40;99.90
22838;DHT22;11585;51.450;-0.240;2023-05-07T07:28:45;15.40;99.90
22838;DHT22;11585;51.450;-0.240;2023-05-07T07:31:12;15.40;99.90
22838;DHT22;11585;51.450;-0.240;2023-05-07T07:33:37;15.40;99.90
22838;DHT22;11585;51.450;-0.240;2023-05-07T07:36:04;15.50;99.90
22838;DHT22;11585;51.450;-0.240;2023-05-07T07:38:34;15.40;99.90
22838;DHT22;11585;51.450;-0.240;2023-05-07T07:40:59;15.40;99.90
22838;DHT22;11585;51.450;-0.240;2023-05-07T07:43:25;15.40;99.90
22838;DHT22;11585;51.450;-0.240;2023-05-07T07:45:51;15.40;99.90
22838;DHT22;11585;51.450;-0.240;2023-05-07T07:48:19;15.40;99.90
22838;DHT22;11585;51.450;-0.240;2023-05-07T07:50:44;15.40;99.90
22838;DHT22;11585;51.450;-0.240;2023-05-07T07:53:10;15.40;99.90
22838;DHT22;11585;51.450;-0.240;2023-05-07T07:55:39;15.50;99.90
22838;DHT22;11585;51.450;-0.240;2023-05-07T08:01:29;15.50;99.90
22838;DHT22;11585;51.450;-0.240;2023-05-07T08:03:58;15.50;99.90
22838;DHT22;11585;51.450;-0.240;2023-05-07T08:06:28;15.50;99.90
22838;DHT22;11585;51.450;-0.240;2023-05-07T08:08:59;15.50;99.90
22838;DHT22;11585;51.450;-0.240;2023-05-07T08:11:25;15.50;99.90
22838;DHT22;11585;51.450;-0.240;2023-05-07T08:13:50;15.50;99.90
22838;DHT22;11585;51.450;-0.240;2023-05-07T08:16:16;15.50;99.90
22838;DHT22;11585;51.450;-0.240;2023-05-07T08:18:42;15.50;99.90
22838;DHT22;11585;51.450;-0.240;2023-05-07T08:21:08;15.60;99.90
22838;DHT22;11585;51.450;-0.240;2023-05-07T08:23:33;15.60;99.90
22838;DHT22;11585;51.450;-0.240;2023-05-07T08:26:00;15.60;99.90
22838;DHT22;11585;51.450;-0.240;2023-05-07T08:28:27;15.60;99.90
22838;DHT22;11585;51.450;-0.240;2023-05-07T08:30:53;15.60;99.90
22838;DHT22;11585;51.450;-0.240;2023-05-07T08:33:19;15.60;99.90
22838;DHT22;11585;51.450;-0.240;2023-05-07T08:35:44;15.60;99.90
22838;DHT22;11585;51.450;-0.240;2023-05-07T08:38:12;15.70;99.90
22838;DHT22;11585;51.450;-0.240;2023-05-07T08:40:39;15.70;99.90
22838;DHT22;11585;51.450;-0.240;2023-05-07T08:43:06;15.70;99.90
22838;DHT22;11585;51.450;-0.240;2023-05-07T08:45:34;15.70;99.90
22838;DHT22;11585;51.450;-0.240;2023-05-07T08:48:18;15.70;99.90
22838;DHT22;11585;51.450;-0.240;2023-05-07T08:50:47;15.70;99.90
22838;DHT22;11585;51.450;-0.240;2023-05-07T08:53:13;15.70;99.90
22838;DHT22;11585;51.450;-0.240;2023-05-07T08:55:39;15.70;99.90
22838;DHT22;11585;51.450;-0.240;2023-05-07T08:58:06;15.80;99.90
22838;DHT22;11585;51.450;-0.240;2023-05-07T09:00:32;15.80;99.90
22838;DHT22;11585;51.450;-0.240;2023-05-07T09:02:58;15.80;99.90
22838;DHT22;11585;51.450;-0.240;2023-05-07T09:05:23;15.80;99.90
22838;DHT22;11585;51.450;-0.240;2023-05-07T09:07:50;15.80;99.90
22838;DHT22;11585;51.450;-0.240;2023-05-07T09:10:16;15.80;99.90
22838;DHT22;11585;51.450;-0.240;2023-05-07T09:12:42;15.90;99.90
22838;DHT22;11585;51.450;-0.240;2023-05-07T09:15:13;15.90;99.90
22838;DHT22;11585;51.450;-0.240;2023-05-07T09:17:39;15.90;99.90
22838;DHT22;11585;51.450;-0.240;2023-05-07T09:20:08;16.00;99.90
22838;DHT22;11585;51.450;-0.240;2023-05-07T09:22:37;15.90;99.90
22838;DHT22;11585;51.450;-0.240;2023-05-07T09:25:03;15.90;99.90
22838;DHT22;11585;51.450;-0.240;2023-05-07T09:27:33;15.90;99.90
22838;DHT22;11585;51.450;-0.240;2023-05-07T09:29:59;16.00;99.90
22838;DHT22;11585;51.450;-0.240;2023-05-07T09:32:25;16.00;99.90
22838;DHT22;11585;51.450;-0.240;2023-05-07T09:34:52;16.00;99.90
22838;DHT22;11585;51.450;-0.240;2023-05-07T09:37:18;16.00;99.90
22838;DHT22;11585;51.450;-0.240;2023-05-07T09:39:49;16.00;99.90
22838;DHT22;11585;51.450;-0.240;2023-05-07T09:42:15;16.00;99.90
22838;DHT22;11585;51.450;-0.240;2023-05-07T09:44:43;16.00;99.90
22838;DHT22;11585;51.450;-0.240;2023-05-07T09:47:10;16.10;99.90
22838;DHT22;11585;51.450;-0.240;2023-05-07T09:49:40;16.10;99.90
22838;DHT22;11585;51.450;-0.240;2023-05-07T09:52:07;16.10;99.90
22838;DHT22;11585;51.450;-0.240;2023-05-07T09:54:36;16.10;99.90
22838;DHT22;11585;51.450;-0.240;2023-05-07T09:57:04;16.10;99.90
22838;DHT22;11585;51.450;-0.240;2023-05-07T09:59:31;16.10;99.90
22838;DHT22;11585;51.450;-0.240;2023-05-07T10:02:12;16.10;99.90
22838;DHT22;11585;51.450;-0.240;2023-05-07T10:04:41;16.10;99.90
22838;DHT22;11585;51.450;-0.240;2023-05-07T10:07:08;16.20;99.90
22838;DHT22;11585;51.450;-0.240;2023-05-07T10:12:43;16.20;99.90
22838;DHT22;11585;51.450;-0.240;2023-05-07T10:15:13;16.20;99.90
22838;DHT22;11585;51.450;-0.240;2023-05-07T10:17:41;16.20;99.90
22838;DHT22;11585;51.450;-0.240;2023-05-07T10:20:08;16.20;99.90
22838;DHT22;11585;51.450;-0.240;2023-05-07T10:22:39;16.20;99.90
22838;DHT22;11585;51.450;-0.240;2023-05-07T10:25:31;16.20;99.90
22838;DHT22;11585;51.450;-0.240;2023-05-07T10:28:04;16.30;99.90
22838;DHT22;11585;51.450;-0.240;2023-05-07T10:30:56;16.30;99.90
22838;DHT22;11585;51.450;-0.240;2023-05-07T10:33:27;16.30;99.90
22838;DHT22;11585;51.450;-0.240;2023-05-07T10:35:58;16.20;99.90
22838;DHT22;11585;51.450;-0.240;2023-05-07T10:38:27;16.30;99.90
22838;DHT22;11585;51.450;-0.240;2023-05-07T10:40:53;16.30;99.90
22838;DHT22;11585;51.450;-0.240;2023-05-07T10:43:19;16.30;99.90
22838;DHT22;11585;51.450;-0.240;2023-05-07T10:46:14;16.30;99.90
22838;DHT22;11585;51.450;-0.240;2023-05-07T10:51:30;16.40;99.90
22838;DHT22;11585;51.450;-0.240;2023-05-07T10:54:24;16.30;99.90
22838;DHT22;11585;51.450;-0.240;2023-05-07T10:56:50;16.40;99.90
22838;DHT22;11585;51.450;-0.240;2023-05-07T11:02:04;16.40;99.90
22838;DHT22;11585;51.450;-0.240;2023-05-07T11:04:32;16.40;99.90
22838;DHT22;11585;51.450;-0.240;2023-05-07T11:13:01;16.50;99.90
22838;DHT22;11585;51.450;-0.240;2023-05-07T11:15:07;16.50;99.90
22838;DHT22;11585;51.450;-0.240;2023-05-07T11:17:33;16.50;99.90
22838;DHT22;11585;51.450;-0.240;2023-05-07T11:21:08;16.50;99.90
22838;DHT22;11585;51.450;-0.240;2023-05-07T11:28:30;16.50;99.90
22838;DHT22;11585;51.450;-0.240;2023-05-07T11:30:57;16.60;99.90
22838;DHT22;11585;51.450;-0.240;2023-05-07T11:33:23;16.60;99.90
22838;DHT22;11585;51.450;-0.240;2023-05-07T11:35:53;16.60;99.90
22838;DHT22;11585;51.450;-0.240;2023-05-07T11:41:42;16.60;99.90
22838;DHT22;11585;51.450;-0.240;2023-05-07T11:44:09;16.60;99.90
22838;DHT22;11585;51.450;-0.240;2023-05-07T11:46:35;16.60;99.90
22838;DHT22;11585;51.450;-0.240;2023-05-07T11:52:25;16.70;99.90
22838;DHT22;11585;51.450;-0.240;2023-05-07T11:57:57;16.70;99.90
22838;DHT22;11585;51.450;-0.240;2023-05-07T12:00:22;16.70;99.90
22838;DHT22;11585;51.450;-0.240;2023-05-07T12:02:48;16.70;99.90
22838;DHT22;11585;51.450;-0.240;2023-05-07T12:05:13;16.70;99.90
22838;DHT22;11585;51.450;-0.240;2023-05-07T12:07:39;16.80;99.90
22838;DHT22;11585;51.450;-0.240;2023-05-07T12:13:30;16.80;99.90
22838;DHT22;11585;51.450;-0.240;2023-05-07T12:15:56;16.80;99.90
22838;DHT22;11585;51.450;-0.240;2023-05-07T12:18:42;16.80;99.90
22838;DHT22;11585;51.450;-0.240;2023-05-07T12:21:08;16.80;99.90
22838;DHT22;11585;51.450;-0.240;2023-05-07T12:23:35;16.80;99.90
22838;DHT22;11585;51.450;-0.240;2023-05-07T12:26:02;16.90;99.90
22838;DHT22;11585;51.450;-0.240;2023-05-07T12:31:50;16.90;99.90
22838;DHT22;11585;51.450;-0.240;2023-05-07T12:34:16;16.90;99.90
22838;DHT22;11585;51.450;-0.240;2023-05-07T12:36:41;16.90;99.90
22838;DHT22;11585;51.450;-0.240;2023-05-07T12:45:54;17.00;99.90
22838;DHT22;11585;51.450;-0.240;2023-05-07T12:48:44;17.00;99.90
22838;DHT22;11585;51.450;-0.240;2023-05-07T12:51:11;17.00;99.90
22838;DHT22;11585;51.450;-0.240;2023-05-07T12:53:42;17.00;99.90
22838;DHT22;11585;51.450;-0.240;2023-05-07T12:56:08;17.00;99.90
22838;DHT22;11585;51.450;-0.240;2023-05-07T12:58:57;17.00;99.90
22838;DHT22;11585;51.450;-0.240;2023-05-07T13:01:29;17.10;99.90
22838;DHT22;11585;51.450;-0.240;2023-05-07T13:03:56;17.00;99.90
22838;DHT22;11585;51.450;-0.240;2023-05-07T13:06:22;17.10;99.90
22838;DHT22;11585;51.450;-0.240;2023-05-07T13:09:09;17.10;99.90
22838;DHT22;11585;51.450;-0.240;2023-05-07T13:11:34;17.10;99.90
22838;DHT22;11585;51.450;-0.240;2023-05-07T13:14:00;17.10;99.90
22838;DHT22;11585;51.450;-0.240;2023-05-07T13:16:26;17.10;99.90
22838;DHT22;11585;51.450;-0.240;2023-05-07T13:19:12;17.10;99.90
22838;DHT22;11585;51.450;-0.240;2023-05-07T13:21:38;17.10;99.90
22838;DHT22;11585;51.450;-0.240;2023-05-07T13:24:03;17.10;99.90
22838;DHT22;11585;51.450;-0.240;2023-05-07T13:26:30;17.20;99.90
22838;DHT22;11585;51.450;-0.240;2023-05-07T13:35:58;17.20;99.90
22838;DHT22;11585;51.450;-0.240;2023-05-07T13:38:26;17.30;99.90
22838;DHT22;11585;51.450;-0.240;2023-05-07T13:40:52;17.30;99.90
22838;DHT22;11585;51.450;-0.240;2023-05-07T13:43:18;17.30;99.90
22838;DHT22;11585;51.450;-0.240;2023-05-07T13:45:44;17.30;99.90
22838;DHT22;11585;51.450;-0.240;2023-05-07T13:51:31;17.40;99.90
22838;DHT22;11585;51.450;-0.240;2023-05-07T13:53:57;17.40;99.90
22838;DHT22;11585;51.450;-0.240;2023-05-07T13:56:23;17.40;99.90
22838;DHT22;11585;51.450;-0.240;2023-05-07T14:02:11;17.50;99.90
22838;DHT22;11585;51.450;-0.240;2023-05-07T14:04:37;17.50;99.90
22838;DHT22;11585;51.450;-0.240;2023-05-07T14:07:03;17.50;99.90
22838;DHT22;11585;51.450;-0.240;2023-05-07T14:12:50;17.60;99.90
22838;DHT22;11585;51.450;-0.240;2023-05-07T14:15:23;17.60;99.90
22838;DHT22;11585;51.450;-0.240;2023-05-07T14:17:48;17.60;99.90
22838;DHT22;11585;51.450;-0.240;2023-05-07T14:20:14;17.70;99.90
22838;DHT22;11585;51.450;-0.240;2023-05-07T14:22:39;17.70;99.90
22838;DHT22;11585;51.450;-0.240;2023-05-07T14:25:06;17.70;99.90
22838;DHT22;11585;51.450;-0.240;2023-05-07T14:27:32;17.80;99.90
22838;DHT22;11585;51.450;-0.240;2023-05-07T14:29:58;17.80;99.90
22838;DHT22;11585;51.450;-0.240;2023-05-07T14:32:23;17.80;99.90
22838;DHT22;11585;51.450;-0.240;2023-05-07T14:34:49;17.90;99.90
22838;DHT22;11585;51.450;-0.240;2023-05-07T14:37:15;17.90;99.90
22838;DHT22;11585;51.450;-0.240;2023-05-07T14:40:02;17.90;99.90
22838;DHT22;11585;51.450;-0.240;2023-05-07T14:42:27;18.00;99.90
22838;DHT22;11585;51.450;-0.240;2023-05-07T14:44:53;18.00;99.90
22838;DHT22;11585;51.450;-0.240;2023-05-07T14:47:19;18.00;99.90
22838;DHT22;11585;51.450;-0.240;2023-05-07T14:49:49;18.10;99.90
22838;DHT22;11585;51.450;-0.240;2023-05-07T14:52:15;18.10;99.90
22838;DHT22;11585;51.450;-0.240;2023-05-07T14:54:41;18.20;99.90
22838;DHT22;11585;51.450;-0.240;2023-05-07T14:57:08;18.20;99.90
22838;DHT22;11585;51.450;-0.240;2023-05-07T15:03:06;18.30;99.90
22838;DHT22;11585;51.450;-0.240;2023-05-07T15:05:32;18.40;99.90
22838;DHT22;11585;51.450;-0.240;2023-05-07T15:07:58;18.40;99.90
22838;DHT22;11585;51.450;-0.240;2023-05-07T15:10:24;18.40;99.90
22838;DHT22;11585;51.450;-0.240;2023-05-07T15:12:49;18.40;99.90
22838;DHT22;11585;51.450;-0.240;2023-05-07T15:15:15;18.50;99.90
22838;DHT22;11585;51.450;-0.240;2023-05-07T15:17:41;18.50;99.90
22838;DHT22;11585;51.450;-0.240;2023-05-07T15:20:09;18.60;99.90
22838;DHT22;11585;51.450;-0.240;2023-05-07T15:22:35;18.60;99.90
22838;DHT22;11585;51.450;-0.240;2023-05-07T15:25:04;18.60;99.90
22838;DHT22;11585;51.450;-0.240;2023-05-07T15:27:30;18.70;99.90
22838;DHT22;11585;51.450;-0.240;2023-05-07T15:36:08;18.80;99.90
22838;DHT22;11585;51.450;-0.240;2023-05-07T15:41:55;18.90;99.90
22838;DHT22;11585;51.450;-0.240;2023-05-07T15:44:21;18.90;99.90
22838;DHT22;11585;51.450;-0.240;2023-05-07T15:46:47;18.90;99.90
22838;DHT22;11585;51.450;-0.240;2023-05-07T15:49:14;18.90;99.90
22838;DHT22;11585;51.450;-0.240;2023-05-07T15:51:40;19.00;99.90
22838;DHT22;11585;51.450;-0.240;2023-05-07T15:54:05;19.00;99.90
22838;DHT22;11585;51.450;-0.240;2023-05-07T15:56:31;19.00;99.90
22838;DHT22;11585;51.450;-0.240;2023-05-07T15:59:02;19.10;99.90
22838;DHT22;11585;51.450;-0.240;2023-05-07T16:01:28;19.10;99.90
22838;DHT22;11585;51.450;-0.240;2023-05-07T16:03:53;19.10;99.90
22838;DHT22;11585;51.450;-0.240;2023-05-07T16:06:19;19.10;99.90
22838;DHT22;11585;51.450;-0.240;2023-05-07T16:12:07;19.20;99.90
22838;DHT22;11585;51.450;-0.240;2023-05-07T16:14:32;19.10;99.90
22838;DHT22;11585;51.450;-0.240;2023-05-07T16:16:58;19.10;99.90
22838;DHT22;11585;51.450;-0.240;2023-05-07T16:19:43;19.20;99.90
22838;DHT22;11585;51.450;-0.240;2023-05-07T16:22:08;19.20;99.90
22838;DHT22;11585;51.450;-0.240;2023-05-07T16:24:37;19.20;99.90
22838;DHT22;11585;51.450;-0.240;2023-05-07T16:27:03;19.20;99.90
22838;DHT22;11585;51.450;-0.240;2023-05-07T16:32:52;19.20;99.90
22838;DHT22;11585;51.450;-0.240;2023-05-07T16:35:18;19.20;99.90
22838;DHT22;11585;51.450;-0.240;2023-05-07T16:37:44;19.20;99.90
22838;DHT22;11585;51.450;-0.240;2023-05-07T16:40:10;19.30;99.90
22838;DHT22;11585;51.450;-0.240;2023-05-07T16:42:37;19.30;99.90
22838;DHT22;11585;51.450;-0.240;2023-05-07T16:45:03;19.30;99.90
22838;DHT22;11585;51.450;-0.240;2023-05-07T16:47:29;19.30;99.90
22838;DHT22;11585;51.450;-0.240;2023-05-07T16:53:17;19.40;99.90
22838;DHT22;11585;51.450;-0.240;2023-05-07T16:55:42;19.40;99.90
22838;DHT22;11585;51.450;-0.240;2023-05-07T16:58:10;19.40;99.90
22838;DHT22;11585;51.450;-0.240;2023-05-07T17:00:36;19.40;99.90
22838;DHT22;11585;51.450;-0.240;2023-05-07T17:03:02;19.40;99.90
22838;DHT22;11585;51.450;-0.240;2023-05-07T17:05:29;19.40;99.90
22838;DHT22;11585;51.450;-0.240;2023-05-07T17:07:55;19.50;99.90
22838;DHT22;11585;51.450;-0.240;2023-05-07T17:10:22;19.50;99.90
22838;DHT22;11585;51.450;-0.240;2023-05-07T17:12:47;19.50;99.90
22838;DHT22;11585;51.450;-0.240;2023-05-07T17:15:13;19.50;99.90
22838;DHT22;11585;51.450;-0.240;2023-05-07T17:17:39;19.50;99.90
22838;DHT22;11585;51.450;-0.240;2023-05-07T17:20:07;19.60;99.90
22838;DHT22;11585;51.450;-0.240;2023-05-07T17:22:32;19.60;99.90
22838;DHT22;11585;51.450;-0.240;2023-05-07T17:24:58;19.60;99.90
22838;DHT22;11585;51.450;-0.240;2023-05-07T17:27:25;19.60;99.90
22838;DHT22;11585;51.450;-0.240;2023-05-07T17:30:11;19.60;99.90
22838;DHT22;11585;51.450;-0.240;2023-05-07T17:32:37;19.60;99.90
22838;DHT22;11585;51.450;-0.240;2023-05-07T17:35:02;19.60;99.90